createdAt,value
2023-12-09T00:00:41.387Z,45.30
2023-12-09T00:03:09.845Z,42.53
2023-12-09T00:05:37.366Z,46.30
2023-12-09T00:08:04.448Z,43.00
2023-12-09T00:10:31.303Z,39.88
2023-12-09T00:12:58.263Z,43.00
2023-12-09T00:15:25.123Z,45.35
2023-12-09T00:17:52.432Z,42.85
2023-12-09T00:20:19.621Z,44.53
2023-12-09T00:22:46.422Z,42.08
2023-12-09T00:25:13.232Z,45.17
2023-12-09T00:27:40.216Z,44.53
2023-12-09T00:30:08.213Z,46.00
2023-12-09T00:32:35.160Z,44.33
2023-12-09T00:35:01.999Z,44.47
2023-12-09T00:37:28.985Z,42.03
2023-12-09T00:39:55.741Z,35.47
2023-12-09T00:42:22.626Z,48.47
2023-12-09T00:44:49.709Z,45.35
2023-12-09T00:47:16.657Z,51.10
2023-12-09T00:49:43.851Z,47.70
2023-12-09T00:52:12.329Z,47.60
2023-12-09T00:54:39.156Z,46.10
2023-12-09T00:57:05.956Z,50.65
2023-12-09T00:59:33.844Z,44.58
2023-12-09T01:02:00.862Z,49.10
2023-12-09T01:04:28.001Z,45.65
2023-12-09T01:06:54.909Z,43.53
2023-12-09T01:09:21.813Z,45.63
2023-12-09T01:11:48.700Z,50.17
2023-12-09T01:14:15.557Z,41.03
2023-12-09T01:16:42.404Z,45.42
2023-12-09T01:19:09.352Z,41.55
2023-12-09T01:21:36.463Z,48.38
2023-12-09T01:24:05.807Z,45.33
2023-12-09T01:26:33.043Z,41.55
2023-12-09T01:29:01.383Z,42.75
2023-12-09T01:31:28.425Z,41.97
2023-12-09T01:33:55.393Z,43.20
2023-12-09T01:36:22.343Z,47.47
2023-12-09T01:38:49.317Z,43.05
2023-12-09T01:41:16.391Z,49.83
2023-12-09T01:43:48.519Z,49.47
2023-12-09T01:46:17.198Z,46.22
2023-12-09T01:48:44.332Z,48.17
2023-12-09T01:51:11.807Z,48.60
2023-12-09T01:53:38.722Z,42.13
2023-12-09T01:56:09.672Z,42.03
2023-12-09T01:58:39.216Z,48.80
2023-12-09T02:01:06.882Z,44.38
2023-12-09T02:03:34.758Z,46.60
2023-12-09T02:06:02.181Z,46.90
2023-12-09T02:08:29.083Z,45.10
2023-12-09T02:11:09.949Z,44.28
2023-12-09T02:13:52.939Z,43.83
2023-12-09T02:16:28.231Z,42.90
2023-12-09T02:18:57.050Z,47.88
2023-12-09T02:21:23.941Z,48.35
2023-12-09T02:23:51.085Z,48.63
2023-12-09T02:26:27.680Z,42.72
2023-12-09T02:29:03.939Z,48.33
2023-12-09T02:31:35.443Z,46.85
2023-12-09T02:34:04.587Z,47.08
2023-12-09T02:36:33.145Z,54.97
2023-12-09T02:39:03.287Z,55.28
2023-12-09T02:41:32.150Z,53.17
2023-12-09T02:43:59.287Z,56.20
2023-12-09T02:46:26.448Z,60.35
2023-12-09T02:48:53.490Z,58.22
2023-12-09T02:51:20.435Z,54.70
2023-12-09T02:53:47.420Z,58.33
2023-12-09T02:56:14.187Z,57.53
2023-12-09T02:58:41.056Z,62.47
2023-12-09T03:01:07.942Z,59.35
2023-12-09T03:03:34.816Z,58.20
2023-12-09T03:06:01.708Z,57.15
2023-12-09T03:08:28.532Z,63.97
2023-12-09T03:10:55.397Z,67.82
2023-12-09T03:13:22.235Z,68.57
2023-12-09T03:15:49.047Z,56.78
2023-12-09T03:18:16.189Z,68.00
2023-12-09T03:20:43.190Z,60.92
2023-12-09T03:23:09.995Z,65.55
2023-12-09T03:25:36.725Z,76.45
2023-12-09T03:28:04.296Z,66.05
2023-12-09T03:30:31.250Z,66.28
2023-12-09T03:32:58.316Z,62.85
2023-12-09T03:35:25.207Z,62.50
2023-12-09T03:37:52.094Z,73.15
2023-12-09T03:40:18.885Z,72.72
2023-12-09T03:42:45.760Z,72.38
2023-12-09T03:45:12.676Z,69.03
2023-12-09T03:47:39.610Z,75.28
2023-12-09T03:50:06.869Z,78.22
2023-12-09T03:52:33.803Z,72.60
2023-12-09T03:55:00.602Z,69.47
2023-12-09T03:57:27.465Z,75.82
2023-12-09T03:59:54.304Z,84.40
2023-12-09T04:02:21.659Z,73.78
2023-12-09T04:04:48.526Z,66.45
2023-12-09T04:07:15.381Z,73.10
2023-12-09T04:09:42.610Z,73.10
2023-12-09T04:12:09.571Z,77.57
2023-12-09T04:14:36.423Z,75.00
2023-12-09T04:17:03.397Z,72.95
2023-12-09T04:19:30.686Z,75.57
2023-12-09T04:21:57.586Z,77.60
2023-12-09T04:24:24.454Z,79.70
2023-12-09T04:26:51.228Z,79.40
2023-12-09T04:29:18.046Z,74.70
2023-12-09T04:31:45.373Z,78.85
2023-12-09T04:34:12.325Z,73.63
2023-12-09T04:36:39.379Z,74.43
2023-12-09T04:39:06.992Z,74.45
2023-12-09T04:41:33.922Z,77.57
2023-12-09T04:44:00.763Z,74.18
2023-12-09T04:46:28.438Z,74.18
2023-12-09T04:48:55.358Z,76.80
2023-12-09T04:51:22.254Z,79.55
2023-12-09T04:53:49.218Z,82.90
2023-12-09T04:56:16.341Z,98.53
2023-12-09T04:58:43.103Z,78.55
2023-12-09T05:01:09.948Z,94.78
2023-12-09T05:03:37.442Z,87.20
2023-12-09T05:06:05.629Z,94.05
2023-12-09T05:08:33.153Z,86.85
2023-12-09T05:11:00.042Z,79.25
2023-12-09T05:13:26.867Z,100.85
2023-12-09T05:15:53.701Z,90.45
2023-12-09T05:18:20.653Z,85.93
2023-12-09T05:20:47.645Z,85.65
2023-12-09T05:23:14.471Z,84.93
2023-12-09T05:25:41.254Z,119.45
2023-12-09T05:28:08.059Z,86.95
2023-12-09T05:30:34.900Z,90.55
2023-12-09T05:33:01.841Z,81.13
2023-12-09T05:35:29.256Z,83.60
2023-12-09T05:37:56.239Z,103.10
2023-12-09T05:40:23.145Z,98.10
2023-12-09T05:42:50.223Z,88.20
2023-12-09T05:45:17.213Z,78.50
2023-12-09T05:47:44.327Z,91.50
2023-12-09T05:50:11.598Z,95.55
2023-12-09T05:52:38.514Z,107.75
2023-12-09T05:55:05.915Z,89.95
2023-12-09T05:57:32.828Z,122.70
2023-12-09T05:59:59.833Z,120.65
2023-12-09T06:02:26.981Z,89.90
2023-12-09T06:04:53.941Z,90.47
2023-12-09T06:07:20.761Z,88.20
2023-12-09T06:09:47.872Z,98.53
2023-12-09T06:12:14.836Z,92.13
2023-12-09T06:14:43.384Z,85.75
2023-12-09T06:17:10.362Z,85.15
2023-12-09T06:19:37.330Z,90.78
2023-12-09T06:22:04.309Z,94.85
2023-12-09T06:24:31.157Z,100.25
2023-12-09T06:26:58.314Z,88.13
2023-12-09T06:29:25.291Z,81.70
2023-12-09T06:31:52.201Z,108.55
2023-12-09T06:34:19.104Z,98.30
2023-12-09T06:36:46.043Z,113.85
2023-12-09T06:39:12.920Z,95.50
2023-12-09T06:41:41.132Z,88.35
2023-12-09T06:44:08.396Z,88.38
2023-12-09T06:46:41.733Z,94.38
2023-12-09T06:49:09.011Z,85.47
2023-12-09T06:51:36.025Z,90.68
2023-12-09T06:54:04.038Z,93.93
2023-12-09T06:56:30.981Z,87.05
2023-12-09T06:58:57.852Z,95.30
2023-12-09T07:01:25.556Z,76.72
2023-12-09T07:03:52.776Z,83.72
2023-12-09T07:06:23.386Z,92.82
2023-12-09T07:08:50.358Z,85.22
2023-12-09T07:11:17.796Z,83.95
2023-12-09T07:13:45.095Z,83.97
2023-12-09T07:16:14.254Z,82.38
2023-12-09T07:18:45.480Z,101.68
2023-12-09T07:21:12.771Z,96.65
2023-12-09T07:23:39.836Z,96.95
2023-12-09T07:26:07.647Z,96.82
2023-12-09T07:28:34.984Z,95.15
2023-12-09T07:31:02.429Z,100.20
2023-12-09T07:33:29.360Z,98.18
2023-12-09T07:35:56.384Z,85.70
2023-12-09T07:38:23.362Z,89.22
2023-12-09T07:40:50.278Z,104.65
2023-12-09T07:43:17.111Z,92.97
2023-12-09T07:45:44.063Z,86.60
2023-12-09T07:48:10.997Z,94.78
2023-12-09T07:50:37.896Z,97.50
2023-12-09T07:53:05.401Z,95.75
2023-12-09T07:55:32.287Z,85.85
2023-12-09T07:57:59.220Z,115.13
2023-12-09T08:00:29.655Z,93.53
2023-12-09T08:02:56.701Z,83.40
2023-12-09T08:05:24.889Z,107.95
2023-12-09T08:07:54.722Z,98.65
2023-12-09T08:10:21.585Z,89.85
2023-12-09T08:12:48.450Z,100.55
2023-12-09T08:15:15.493Z,88.70
2023-12-09T08:17:42.407Z,87.75
2023-12-09T08:20:10.437Z,117.50
2023-12-09T08:22:39.960Z,92.05
2023-12-09T08:25:14.302Z,95.47
2023-12-09T08:27:41.395Z,77.80
2023-12-09T08:30:11.704Z,95.15
2023-12-09T08:32:40.852Z,94.55
2023-12-09T08:35:10.491Z,81.95
2023-12-09T08:37:38.730Z,98.43
2023-12-09T08:40:13.521Z,88.95
2023-12-09T08:42:42.005Z,85.30
2023-12-09T08:45:11.174Z,94.53
2023-12-09T08:47:39.872Z,80.93
2023-12-09T08:50:21.413Z,90.47
2023-12-09T08:52:55.056Z,88.40
2023-12-09T08:55:23.089Z,77.85
2023-12-09T08:57:51.410Z,92.20
2023-12-09T09:00:22.140Z,95.13
2023-12-09T09:02:49.924Z,71.18
2023-12-09T09:05:17.059Z,74.53
2023-12-09T09:07:47.305Z,83.32
2023-12-09T09:10:15.209Z,78.05
2023-12-09T09:12:44.788Z,83.57
2023-12-09T09:15:12.205Z,88.07
2023-12-09T09:17:40.686Z,86.18
2023-12-09T09:20:08.381Z,79.63
2023-12-09T09:22:35.529Z,77.63
2023-12-09T09:25:03.018Z,83.50
2023-12-09T09:27:30.210Z,86.93
2023-12-09T09:29:57.379Z,83.57
2023-12-09T09:32:24.419Z,80.15
2023-12-09T09:34:51.582Z,82.05
2023-12-09T09:37:18.517Z,73.30
2023-12-09T09:39:45.674Z,78.38
2023-12-09T09:42:27.069Z,85.47
2023-12-09T09:45:24.289Z,76.45
2023-12-09T09:47:54.793Z,75.85
2023-12-09T09:50:26.203Z,73.18
2023-12-09T09:52:54.414Z,71.88
2023-12-09T09:55:26.396Z,69.50
2023-12-09T09:57:54.128Z,88.68
2023-12-09T10:00:22.825Z,72.45
2023-12-09T10:02:56.732Z,77.88
2023-12-09T10:05:24.982Z,69.07
2023-12-09T10:07:53.097Z,79.35
2023-12-09T10:10:20.269Z,73.07
2023-12-09T10:12:47.443Z,74.30
2023-12-09T10:15:14.392Z,62.95
2023-12-09T10:17:42.118Z,73.60
2023-12-09T10:20:11.994Z,71.53
2023-12-09T10:22:40.009Z,75.03
2023-12-09T10:25:09.948Z,75.53
2023-12-09T10:27:37.241Z,73.00
2023-12-09T10:30:04.778Z,76.68
2023-12-09T10:32:34.182Z,74.70
2023-12-09T10:35:04.450Z,71.78
2023-12-09T10:37:33.280Z,77.05
2023-12-09T10:40:05.117Z,62.35
2023-12-09T10:42:32.570Z,72.68
2023-12-09T10:45:04.507Z,63.78
2023-12-09T10:47:32.456Z,66.80
2023-12-09T10:49:59.288Z,63.63
2023-12-09T10:52:26.332Z,63.92
2023-12-09T10:54:53.435Z,66.18
2023-12-09T10:57:20.668Z,63.63
2023-12-09T10:59:47.490Z,58.70
2023-12-09T11:02:17.094Z,61.30
2023-12-09T11:04:44.680Z,56.13
2023-12-09T11:07:12.778Z,72.75
2023-12-09T11:09:41.357Z,56.55
2023-12-09T11:12:09.171Z,70.13
2023-12-09T11:14:38.639Z,68.65
2023-12-09T11:17:38.128Z,62.88
2023-12-09T11:20:15.557Z,71.13
2023-12-09T11:22:44.993Z,62.50
2023-12-09T11:25:20.655Z,57.65
2023-12-09T11:27:50.282Z,56.35
2023-12-09T11:30:43.629Z,62.47
2023-12-09T11:33:11.510Z,62.38
2023-12-09T11:35:39.090Z,51.85
2023-12-09T11:38:08.388Z,71.75
2023-12-09T11:40:35.779Z,68.05
2023-12-09T11:43:09.334Z,57.75
2023-12-09T11:45:39.276Z,65.22
2023-12-09T11:48:06.811Z,57.50
2023-12-09T11:50:33.906Z,56.92
2023-12-09T11:53:01.189Z,54.22
2023-12-09T11:55:28.151Z,64.53
2023-12-09T11:57:55.031Z,57.03
2023-12-09T12:00:22.931Z,64.28
2023-12-09T12:02:50.115Z,55.92
2023-12-09T12:05:17.227Z,50.55
2023-12-09T12:07:44.062Z,60.13
2023-12-09T12:10:11.703Z,63.83
2023-12-09T12:12:38.738Z,65.85
2023-12-09T12:15:06.432Z,53.45
2023-12-09T12:17:41.408Z,59.55
2023-12-09T12:20:12.142Z,62.67
2023-12-09T12:22:41.904Z,57.28
2023-12-09T12:25:09.614Z,56.15
2023-12-09T12:27:40.184Z,62.22
2023-12-09T12:30:09.463Z,58.70
2023-12-09T12:32:39.168Z,59.70
2023-12-09T12:35:07.095Z,58.65
2023-12-09T12:37:34.195Z,57.17
2023-12-09T12:40:01.159Z,63.65
2023-12-09T12:42:28.272Z,55.30
2023-12-09T12:44:56.708Z,52.10
2023-12-09T12:47:24.292Z,52.78
2023-12-09T12:49:51.638Z,57.72
2023-12-09T12:52:18.640Z,56.63
2023-12-09T12:54:45.622Z,58.60
2023-12-09T12:57:12.606Z,67.25
2023-12-09T12:59:39.478Z,57.28
2023-12-09T13:02:06.395Z,54.75
2023-12-09T13:04:33.418Z,55.70
2023-12-09T13:07:00.414Z,53.25
2023-12-09T13:09:27.449Z,53.83
2023-12-09T13:11:54.397Z,53.22
2023-12-09T13:14:21.331Z,50.78
2023-12-09T13:16:48.244Z,49.70
2023-12-09T13:19:15.209Z,52.90
2023-12-09T13:21:42.204Z,47.20
2023-12-09T13:24:09.960Z,52.33
2023-12-09T13:26:36.918Z,50.70
2023-12-09T13:29:03.979Z,48.67
2023-12-09T13:31:31.140Z,48.42
2023-12-09T13:33:58.124Z,44.47
2023-12-09T13:36:25.452Z,51.97
2023-12-09T13:38:52.689Z,45.63
2023-12-09T13:41:19.635Z,49.60
2023-12-09T13:43:47.780Z,45.85
2023-12-09T13:46:14.936Z,47.30
2023-12-09T13:48:42.073Z,43.08
2023-12-09T13:51:11.885Z,46.10
2023-12-09T13:53:38.870Z,45.70
2023-12-09T13:56:06.994Z,48.72
2023-12-09T13:58:33.934Z,46.72
2023-12-09T14:01:01.784Z,40.80
2023-12-09T14:03:29.532Z,43.05
2023-12-09T14:05:56.759Z,45.53
2023-12-09T14:08:23.973Z,41.85
2023-12-09T14:10:50.936Z,49.80
2023-12-09T14:13:19.327Z,45.03
2023-12-09T14:15:46.629Z,45.78
2023-12-09T14:18:13.794Z,43.65
2023-12-09T14:20:41.931Z,45.25
2023-12-09T14:23:08.821Z,41.65
2023-12-09T14:25:35.874Z,41.22
2023-12-09T14:28:02.786Z,40.88
2023-12-09T14:30:29.679Z,41.22
2023-12-09T14:32:56.614Z,39.55
2023-12-09T14:35:23.818Z,44.78
2023-12-09T14:37:51.970Z,39.25
2023-12-09T14:40:19.271Z,43.03
2023-12-09T14:42:46.749Z,44.42
2023-12-09T14:45:15.017Z,34.28
2023-12-09T14:47:53.474Z,44.65
2023-12-09T14:50:25.578Z,34.65
2023-12-09T14:52:52.573Z,34.08
2023-12-09T14:55:20.433Z,36.10
2023-12-09T14:57:48.043Z,35.63
2023-12-09T15:00:15.991Z,35.33
2023-12-09T15:02:42.908Z,35.28
2023-12-09T15:05:10.012Z,36.72
2023-12-09T15:07:37.197Z,30.98
2023-12-09T15:10:04.634Z,32.58
2023-12-09T15:12:32.384Z,37.47
2023-12-09T15:15:01.739Z,37.50
2023-12-09T15:17:28.714Z,35.45
2023-12-09T15:19:56.380Z,37.20
2023-12-09T15:22:25.732Z,35.58
2023-12-09T15:24:52.841Z,38.65
2023-12-09T15:27:20.024Z,32.60
2023-12-09T15:29:47.448Z,41.15
2023-12-09T15:32:14.476Z,43.00
2023-12-09T15:34:41.375Z,33.65
2023-12-09T15:37:08.481Z,42.13
2023-12-09T15:39:40.589Z,41.67
2023-12-09T15:44:35.100Z,37.05
2023-12-09T15:47:02.021Z,42.63
2023-12-09T15:49:29.020Z,40.05
2023-12-09T15:51:56.247Z,38.30
2023-12-09T15:54:24.093Z,40.83
2023-12-09T15:56:51.200Z,44.67
2023-12-09T15:59:18.115Z,40.60
2023-12-09T16:01:45.092Z,44.25
2023-12-09T16:04:12.074Z,42.05
2023-12-09T16:06:39.226Z,44.13
2023-12-09T16:09:06.294Z,46.90
2023-12-09T16:11:34.819Z,44.42
2023-12-09T16:14:01.896Z,47.67
2023-12-09T16:16:29.147Z,48.53
2023-12-09T16:18:56.310Z,50.15
2023-12-09T16:21:24.158Z,133.90
2023-12-09T16:23:51.076Z,84.88
2023-12-09T16:26:18.058Z,74.82
2023-12-09T16:28:46.756Z,76.00
2023-12-09T16:31:15.884Z,80.78
2023-12-09T16:33:43.291Z,46.28
2023-12-09T16:36:10.558Z,83.30
2023-12-09T16:38:37.650Z,80.72
2023-12-09T16:41:04.953Z,107.75
2023-12-09T16:43:32.053Z,67.70
2023-12-09T16:45:59.637Z,96.53
2023-12-09T16:48:26.690Z,63.47
2023-12-09T16:50:53.691Z,80.47
2023-12-09T16:53:20.674Z,59.15
2023-12-09T16:55:47.593Z,81.82
2023-12-09T16:58:16.161Z,71.60
2023-12-09T17:00:44.718Z,60.85
2023-12-09T17:03:11.772Z,68.72
2023-12-09T17:05:38.686Z,81.78
2023-12-09T17:08:05.902Z,58.75
2023-12-09T17:10:33.559Z,60.30
2023-12-09T17:13:00.561Z,49.92
2023-12-09T17:15:27.609Z,43.80
2023-12-09T17:17:54.700Z,66.18
2023-12-09T17:20:21.622Z,51.75
2023-12-09T17:22:49.620Z,62.40
2023-12-09T17:25:18.339Z,46.85
2023-12-09T17:27:45.646Z,58.97
2023-12-09T17:30:16.216Z,47.47
2023-12-09T17:32:43.852Z,46.88
2023-12-09T17:35:10.934Z,53.38
2023-12-09T17:37:38.001Z,42.90
2023-12-09T17:40:07.207Z,64.53
2023-12-09T17:42:34.326Z,50.47
2023-12-09T17:45:01.585Z,45.97
2023-12-09T17:47:34.128Z,50.90
2023-12-09T17:50:04.043Z,58.63
2023-12-09T17:52:33.526Z,56.22
2023-12-09T17:55:02.421Z,62.65
2023-12-09T17:57:29.356Z,61.92
2023-12-09T17:59:56.466Z,52.60
2023-12-09T18:02:24.267Z,62.75
2023-12-09T18:04:51.296Z,61.40
2023-12-09T18:07:18.773Z,66.38
2023-12-09T18:09:47.099Z,66.97
2023-12-09T18:12:14.342Z,57.03
2023-12-09T18:14:41.237Z,66.18
2023-12-09T18:17:08.504Z,50.38
2023-12-09T18:19:35.531Z,51.35
2023-12-09T18:22:02.591Z,55.17
2023-12-09T18:24:29.552Z,59.63
2023-12-09T18:26:56.676Z,47.15
2023-12-09T18:29:23.844Z,55.08
2023-12-09T18:31:50.822Z,53.35
2023-12-09T18:34:17.984Z,61.78
2023-12-09T18:36:45.303Z,64.97
2023-12-09T18:39:12.345Z,54.55
2023-12-09T18:41:39.687Z,55.72
2023-12-09T18:44:07.284Z,51.28
2023-12-09T18:46:34.361Z,50.80
2023-12-09T18:49:01.588Z,58.58
2023-12-09T18:51:28.665Z,50.75
2023-12-09T18:53:55.601Z,62.58
2023-12-09T18:56:25.700Z,50.78
2023-12-09T18:58:52.754Z,60.33
2023-12-09T19:01:19.690Z,64.38
2023-12-09T19:03:46.824Z,59.50
2023-12-09T19:06:13.971Z,54.72
2023-12-09T19:08:42.794Z,56.33
2023-12-09T19:11:09.849Z,69.35
2023-12-09T19:13:36.821Z,65.65
2023-12-09T19:16:04.044Z,59.13
2023-12-09T19:18:31.151Z,61.45
2023-12-09T19:20:58.588Z,65.43
2023-12-09T19:23:25.449Z,58.45
2023-12-09T19:25:52.500Z,59.75
2023-12-09T19:28:19.353Z,50.80
2023-12-09T19:30:46.477Z,57.63
2023-12-09T19:33:13.848Z,63.20
2023-12-09T19:35:40.850Z,56.70
2023-12-09T19:38:07.775Z,52.42
2023-12-09T19:40:35.527Z,60.55
2023-12-09T19:43:02.389Z,66.97
2023-12-09T19:45:29.375Z,64.07
2023-12-09T19:47:57.300Z,61.55
2023-12-09T19:50:24.857Z,51.92
2023-12-09T19:52:52.413Z,59.08
2023-12-09T19:55:19.268Z,58.58
2023-12-09T19:57:46.481Z,60.03
2023-12-09T20:00:16.133Z,57.25
2023-12-09T20:02:45.567Z,64.53
2023-12-09T20:05:12.798Z,64.15
2023-12-09T20:07:39.817Z,68.78
2023-12-09T20:10:07.203Z,64.35
2023-12-09T20:12:34.180Z,56.83
2023-12-09T20:15:01.122Z,60.33
2023-12-09T20:17:27.925Z,63.03
2023-12-09T20:19:54.910Z,56.15
2023-12-09T20:22:22.883Z,56.72
2023-12-09T20:24:49.797Z,53.28
2023-12-09T20:27:17.119Z,57.15
2023-12-09T20:29:44.004Z,54.53
2023-12-09T20:32:10.943Z,55.00
2023-12-09T20:34:37.781Z,55.65
2023-12-09T20:37:05.066Z,56.42
2023-12-09T20:39:32.095Z,58.40
2023-12-09T20:41:59.183Z,58.05
2023-12-09T20:44:26.093Z,51.70
2023-12-09T20:46:54.768Z,48.42
2023-12-09T20:49:22.082Z,49.83
2023-12-09T20:51:49.294Z,52.75
2023-12-09T20:54:16.411Z,53.28
2023-12-09T20:56:43.586Z,50.78
2023-12-09T20:59:10.722Z,48.72
2023-12-09T21:01:48.517Z,53.20
2023-12-09T21:04:15.876Z,47.67
2023-12-09T21:06:42.944Z,45.95
2023-12-09T21:09:10.776Z,48.28
2023-12-09T21:11:38.960Z,48.10
2023-12-09T21:14:07.763Z,44.33
2023-12-09T21:16:35.786Z,49.38
2023-12-09T21:19:03.304Z,49.45
2023-12-09T21:21:34.604Z,44.80
2023-12-09T21:24:01.734Z,42.60
2023-12-09T21:26:28.812Z,46.03
2023-12-09T21:28:56.109Z,43.50
2023-12-09T21:31:23.319Z,42.45
2023-12-09T21:33:50.411Z,39.60
2023-12-09T21:36:17.588Z,40.85
2023-12-09T21:38:45.106Z,42.47
2023-12-09T21:41:20.645Z,42.13
2023-12-09T21:43:49.858Z,35.60
2023-12-09T21:46:21.613Z,43.80
2023-12-09T21:48:49.795Z,31.08
2023-12-09T21:51:17.763Z,35.08
2023-12-09T21:53:44.883Z,37.58
2023-12-09T21:56:24.726Z,36.53
2023-12-09T21:58:52.562Z,37.33
2023-12-09T22:01:20.628Z,34.15
2023-12-09T22:03:48.730Z,34.85
2023-12-09T22:06:16.179Z,34.10
2023-12-09T22:08:44.165Z,37.78
2023-12-09T22:11:12.421Z,37.33
2023-12-09T22:13:39.959Z,36.63
2023-12-09T22:16:07.675Z,33.78
2023-12-09T22:18:34.849Z,40.13
2023-12-09T22:21:02.213Z,32.92
2023-12-09T22:23:29.241Z,36.78
2023-12-09T22:25:56.309Z,39.70
2023-12-09T22:28:23.236Z,32.28
2023-12-09T22:30:50.324Z,32.67
2023-12-09T22:33:17.557Z,36.28
2023-12-09T22:35:44.457Z,33.95
2023-12-09T22:38:11.524Z,34.90
2023-12-09T22:40:38.645Z,34.53
2023-12-09T22:43:06.106Z,31.48
2023-12-09T22:45:33.012Z,32.65
2023-12-09T22:48:00.270Z,29.80
2023-12-09T22:50:27.936Z,29.80
2023-12-09T22:52:54.812Z,29.10
2023-12-09T22:55:23.498Z,31.52
2023-12-09T22:57:50.385Z,27.20
2023-12-09T23:00:19.660Z,25.42
2023-12-09T23:02:46.609Z,32.78
2023-12-09T23:05:13.577Z,29.33
2023-12-09T23:07:40.590Z,32.72
2023-12-09T23:10:07.944Z,29.17
2023-12-09T23:12:34.908Z,29.17
2023-12-09T23:15:02.355Z,29.70
2023-12-09T23:17:29.418Z,26.40
2023-12-09T23:19:56.478Z,26.77
2023-12-09T23:22:23.849Z,27.13
2023-12-09T23:24:50.941Z,29.35
2023-12-09T23:27:18.428Z,28.70
2023-12-09T23:29:45.429Z,31.63
2023-12-09T23:32:13.101Z,27.73
2023-12-09T23:34:40.098Z,30.10
2023-12-09T23:37:07.215Z,31.13
2023-12-09T23:39:34.534Z,27.48
2023-12-09T23:42:01.416Z,32.40
2023-12-09T23:44:28.329Z,30.15
2023-12-09T23:46:55.808Z,31.85
2023-12-09T23:49:24.982Z,32.55
2023-12-09T23:51:51.927Z,30.85
2023-12-09T23:54:19.047Z,30.48
2023-12-09T23:56:46.347Z,31.42
2023-12-09T23:59:13.198Z,28.42
